Warnock, OH (43967)

6:50 AM EDT on May 05, 2015 (GMT -0400)
Morristown, Ohio | | Change Station
CLOSE
Current Station
Personal Weather Station
Location: Belmont, OH
Elevation: 1283 ft
Nearby Weather Stations

Elev 1283 ft 40.08 °N, 81.06 °W | Updated 45 seconds ago

Overcast
Overcast
60.3 °F
Feels Like 60.3 °F
N
1.7
Wind Variable Wind from West

Today
High -- | Low -- °F
--% Chance of Precip.
Yesterday
High -- | Low -- °F
Precip. -- in
6:19 AM 8:22 PM
Full, 98% visible
Pressure 30.22 in
Visibility 7.0 miles
Clouds Few 7000 ft
Few 8500 ft
Overcast 12000 ft
Dew Point 59 °F
Humidity 96%
Rainfall 0.02 in
Snow Depth Not available.
UV 0 out of 12
Pollen 10.90 out of 12
Air Quality Not available.
Flu Activity Regional
METAR KHLG 050953Z AUTO 20004KT 7SM FEW070 FEW085 OVC120 16/14 A3024 RMK AO2 SLP234 T01610144

More Conditions Fewer Conditions

Pressure 30.22 in
Visibility 7.0 miles
Clouds Few 7000 ft
Few 8500 ft
Overcast 12000 ft
Dew Point 59 °F
Humidity 96%
Rainfall 0.02 in
Snow Depth Not available.
UV 0 out of 12
Pollen 10.90 out of 12
Air Quality Not available.
Flu Activity Regional
METAR KHLG 050953Z AUTO 20004KT 7SM FEW070 FEW085 OVC120 16/14 A3024 RMK AO2 SLP234 T01610144

More Conditions Fewer Conditions

Nepal has a long way to go to dig out and rebuild from a devastating earthquake. We have teamed up with several charities and organizations to make contributing to the relief effort as easy as possible.
How you can help: Portlight Strategies | Red Cross

10-Day Weather Forecast

Almanac

Astronomy

May. 05, 2015 Rise Set
Actual Time
Civil Twilight
Nautical Twilight
Astronomical Twilight
Moon
Length of Visible Light
Length of Day
Tomorrow will be .
, % of the Moon is Illuminated

Today's Extremes

State Highs State Lows

Community

WunderPhotos

Upload Photos

1,818,828 photos uploaded!

WunderBlogs® & News

Nearby

Air Quality

  Air Quality AQ Index Pollutant
Not available.

Snow Depth

Station Depth Elevation

Earthquake Activity

City Distance Mag. Time & Date
Minimum magnitude displayed is 2.5.

Coastal Water Temperatures

Place Temperature

Stations

Nearby Weather Stations

Station Location Temp. Windchill Dew Point Humidity Wind Precip. Elev Updated Type